createdAt,value
2022-11-08T00:05:40.397Z,101858.03
2022-11-08T00:08:37.949Z,101816.47
2022-11-08T00:11:55.998Z,101806.50
2022-11-08T00:14:31.723Z,101841.75
2022-11-08T00:17:08.530Z,101818.72
2022-11-08T00:19:41.294Z,101812.91
2022-11-08T00:22:15.130Z,101894.78
2022-11-08T00:24:48.176Z,101874.44
2022-11-08T00:27:22.633Z,101818.28
2022-11-08T00:30:33.204Z,101850.31
2022-11-08T00:33:24.176Z,101889.72
2022-11-08T00:37:05.786Z,101827.16
2022-11-08T00:39:38.628Z,101820.69
2022-11-08T00:42:08.910Z,101874.09
2022-11-08T00:44:39.470Z,101833.63
2022-11-08T00:47:09.771Z,101824.44
2022-11-08T00:49:40.244Z,101830.13
2022-11-08T00:52:10.485Z,101841.88
2022-11-08T00:54:40.638Z,101866.63
2022-11-08T00:59:17.150Z,101846.13
2022-11-08T01:00:46.248Z,101826.19
2022-11-08T01:03:52.114Z,101888.59
2022-11-08T01:06:25.355Z,101881.84
2022-11-08T01:08:58.664Z,101832.25
2022-11-08T01:11:30.069Z,101828.16
2022-11-08T01:14:02.526Z,101824.97
2022-11-08T01:16:36.342Z,101831.34
2022-11-08T01:19:08.402Z,101821.53
2022-11-08T01:22:22.872Z,101822.41
2022-11-08T01:25:07.807Z,101850.13
2022-11-08T01:27:37.970Z,101817.03
2022-11-08T01:30:10.356Z,101811.13
2022-11-08T01:32:46.705Z,101809.66
2022-11-08T01:35:18.619Z,101809.13
2022-11-08T01:47:01.591Z,101807.59
2022-11-08T02:06:28.019Z,101805.47
2022-11-08T02:09:06.894Z,101798.56
2022-11-08T02:11:52.566Z,101823.50
2022-11-08T02:14:24.175Z,101788.91
2022-11-08T02:17:55.586Z,101770.44
2022-11-08T02:21:00.444Z,101761.84
2022-11-08T02:23:56.515Z,101761.84
2022-11-08T02:26:36.676Z,101759.75
2022-11-08T02:29:34.678Z,101754.47
2022-11-08T02:32:07.925Z,101751.28
2022-11-08T02:34:54.477Z,101750.78
2022-11-08T02:37:30.230Z,101765.06
2022-11-08T02:44:15.800Z,101750.28
2022-11-08T02:47:26.928Z,101761.84
2022-11-08T02:50:10.944Z,101767.09
2022-11-08T02:52:55.685Z,101755.16
2022-11-08T02:55:25.763Z,101744.91
2022-11-08T02:57:55.786Z,101761.00
2022-11-08T03:00:25.968Z,101744.50
2022-11-08T03:03:00.849Z,101725.84
2022-11-08T03:05:32.565Z,101738.31
2022-11-08T03:08:04.149Z,101736.31
2022-11-08T03:10:36.139Z,101721.59
2022-11-08T03:13:11.497Z,101720.28
2022-11-08T03:15:41.884Z,101718.16
2022-11-08T03:18:11.805Z,101710.50
2022-11-08T03:20:42.507Z,101697.81
2022-11-08T03:23:14.174Z,101707.88
2022-11-08T03:25:45.320Z,101715.19
2022-11-08T03:28:23.294Z,101711.09
2022-11-08T03:30:55.566Z,101696.50
2022-11-08T03:33:28.952Z,101715.69
2022-11-08T03:36:12.974Z,101702.00
2022-11-08T03:38:44.483Z,101684.84
2022-11-08T03:41:20.882Z,101697.56
2022-11-08T03:43:56.757Z,101684.97
2022-11-08T03:46:27.627Z,101680.16
2022-11-08T03:48:58.487Z,101654.97
2022-11-08T03:51:28.457Z,101684.47
2022-11-08T03:53:58.509Z,101657.97
2022-11-08T03:56:30.089Z,101634.78
2022-11-08T03:59:01.055Z,101631.63
2022-11-08T04:01:31.156Z,101643.66
2022-11-08T04:04:01.675Z,101624.66
2022-11-08T04:06:31.232Z,101611.00
2022-11-08T04:09:01.308Z,101608.06
2022-11-08T04:11:50.162Z,101608.28
2022-11-08T04:14:39.406Z,101603.47
2022-11-08T04:17:09.495Z,101606.56
2022-11-08T04:19:59.503Z,101590.34
2022-11-08T04:22:31.383Z,101587.41
2022-11-08T04:25:02.722Z,101575.78
2022-11-08T04:27:34.117Z,101567.44
2022-11-08T04:30:07.269Z,101574.03
2022-11-08T04:32:38.734Z,101580.28
2022-11-08T04:35:10.330Z,101553.47
2022-11-08T04:37:42.326Z,101553.91
2022-11-08T04:40:14.618Z,101586.22
2022-11-08T04:42:49.032Z,101569.09
2022-11-08T04:45:19.488Z,101558.00
2022-11-08T04:47:51.076Z,101562.91
2022-11-08T04:50:22.500Z,101550.38
2022-11-08T04:52:58.479Z,101563.22
2022-11-08T04:55:28.772Z,101547.53
2022-11-08T04:58:03.737Z,101520.53
2022-11-08T05:00:34.221Z,101517.91
2022-11-08T05:03:04.822Z,101521.66
2022-11-08T05:05:36.409Z,101513.59
2022-11-08T05:08:08.711Z,101506.94
2022-11-08T05:10:38.962Z,101498.75
2022-11-08T05:13:11.032Z,101500.25
2022-11-08T05:15:42.381Z,101491.91
2022-11-08T05:18:12.615Z,101517.13
2022-11-08T05:21:02.501Z,101498.34
2022-11-08T05:23:34.913Z,101480.25
2022-11-08T05:26:06.133Z,101515.19
2022-11-08T05:28:37.601Z,101491.94
2022-11-08T05:31:09.715Z,101473.16
2022-11-08T05:33:42.106Z,101506.28
2022-11-08T05:36:14.809Z,101507.00
2022-11-08T05:38:47.565Z,101467.03
2022-11-08T05:41:21.930Z,101470.09
2022-11-08T05:43:54.642Z,101489.31
2022-11-08T05:46:26.254Z,101464.53
2022-11-08T05:48:58.139Z,101453.69
2022-11-08T05:51:29.672Z,101461.31
2022-11-08T05:54:00.609Z,101460.91
2022-11-08T05:56:30.907Z,101449.06
2022-11-08T05:59:01.404Z,101445.44
2022-11-08T06:01:31.996Z,101439.03
2022-11-08T06:04:03.126Z,101431.06
2022-11-08T06:06:35.187Z,101458.28
2022-11-08T06:09:07.418Z,101427.19
2022-11-08T06:11:39.927Z,101425.22
2022-11-08T06:14:13.469Z,101438.47
2022-11-08T06:16:44.089Z,101431.63
2022-11-08T06:19:16.230Z,101425.34
2022-11-08T06:21:48.643Z,101439.84
2022-11-08T06:24:20.390Z,101445.97
2022-11-08T06:26:52.577Z,101433.41
2022-11-08T06:29:25.523Z,101408.59
2022-11-08T06:31:57.285Z,101432.84
2022-11-08T06:34:29.425Z,101405.34
2022-11-08T06:37:01.581Z,101420.81
2022-11-08T06:39:33.360Z,101440.75
2022-11-08T06:42:04.941Z,101422.88
2022-11-08T06:44:36.533Z,101417.44
2022-11-08T06:47:07.148Z,101442.97
2022-11-08T06:49:39.451Z,101446.31
2022-11-08T06:52:10.850Z,101430.13
2022-11-08T06:54:41.903Z,101424.13
2022-11-08T06:57:13.059Z,101424.97
2022-11-08T06:59:44.192Z,101408.78
2022-11-08T07:02:15.367Z,101414.22
2022-11-08T07:04:45.652Z,101408.25
2022-11-08T07:07:16.678Z,101411.03
2022-11-08T07:09:46.687Z,101404.06
2022-11-08T07:12:17.224Z,101420.81
2022-11-08T07:14:48.654Z,101406.72
2022-11-08T07:17:19.780Z,101422.88
2022-11-08T07:19:50.061Z,101442.97
2022-11-08T07:22:20.753Z,101391.94
2022-11-08T07:24:51.139Z,101402.00
2022-11-08T07:27:21.717Z,101390.41
2022-11-08T07:29:51.936Z,101397.53
2022-11-08T07:32:22.319Z,101402.00
2022-11-08T07:34:53.600Z,101391.41
2022-11-08T07:37:25.208Z,101394.06
2022-11-08T07:39:56.514Z,101410.22
2022-11-08T07:42:38.398Z,101402.13
2022-11-08T07:45:18.158Z,101423.06
2022-11-08T07:47:50.953Z,101400.88
2022-11-08T07:50:24.789Z,101391.09
2022-11-08T07:53:00.694Z,101394.06
2022-11-08T07:55:31.899Z,101392.38
2022-11-08T07:58:04.446Z,101376.34
2022-11-08T08:00:41.413Z,101377.00
2022-11-08T08:03:14.844Z,101387.75
2022-11-08T08:05:46.986Z,101369.66
2022-11-08T08:08:18.642Z,101399.34
2022-11-08T08:10:49.905Z,101390.88
2022-11-08T08:13:21.069Z,101393.09
2022-11-08T08:15:51.855Z,101355.47
2022-11-08T08:18:24.430Z,101375.41
2022-11-08T08:20:54.877Z,101373.75
2022-11-08T08:23:31.661Z,101372.66
2022-11-08T08:26:06.361Z,101368.47
2022-11-08T08:28:37.174Z,101375.47
2022-11-08T08:31:08.342Z,101375.94
2022-11-08T08:33:39.884Z,101373.00
2022-11-08T08:36:11.112Z,101385.94
2022-11-08T08:38:44.737Z,101389.03
2022-11-08T08:41:16.432Z,101371.06
2022-11-08T08:43:46.714Z,101366.63
2022-11-08T08:46:17.712Z,101366.19
2022-11-08T08:48:48.547Z,101380.28
2022-11-08T08:51:19.311Z,101366.91
2022-11-08T08:53:50.795Z,101360.50
2022-11-08T08:56:22.563Z,101362.31
2022-11-08T09:01:44.315Z,101377.88
2022-11-08T09:04:15.845Z,101408.63
2022-11-08T09:06:48.985Z,101406.78
2022-11-08T09:09:20.870Z,101395.06
2022-11-08T09:11:51.029Z,101386.88
2022-11-08T09:14:21.471Z,101401.56
2022-11-08T09:16:53.178Z,101382.34
2022-11-08T09:19:24.327Z,101384.44
2022-11-08T09:21:55.657Z,101413.56
2022-11-08T09:24:25.817Z,101387.28
2022-11-08T09:26:56.797Z,101437.16
2022-11-08T09:29:27.115Z,101395.44
2022-11-08T09:31:59.805Z,101395.78
2022-11-08T09:34:32.154Z,101395.34
2022-11-08T09:37:02.201Z,101432.81
2022-11-08T09:39:32.655Z,101398.75
2022-11-08T09:42:24.598Z,101388.63
2022-11-08T09:45:12.697Z,101399.53
2022-11-08T09:47:46.688Z,101406.06
2022-11-08T09:50:41.522Z,101398.63
2022-11-08T09:53:36.432Z,101404.31
2022-11-08T09:56:21.654Z,101416.09
2022-11-08T09:59:06.853Z,101416.59
2022-11-08T10:01:39.576Z,101423.81
2022-11-08T10:04:17.745Z,101416.41
2022-11-08T10:07:16.982Z,101419.16
2022-11-08T10:10:07.115Z,101416.19
2022-11-08T10:12:47.598Z,101416.69
2022-11-08T10:15:21.898Z,101425.84
2022-11-08T10:17:52.279Z,101424.38
2022-11-08T10:20:51.621Z,101422.00
2022-11-08T10:23:23.715Z,101425.84
2022-11-08T10:26:12.278Z,101430.53
2022-11-08T10:29:01.695Z,101430.66
2022-11-08T10:31:36.939Z,101425.91
2022-11-08T10:34:19.726Z,101454.91
2022-11-08T10:36:52.852Z,101438.22
2022-11-08T10:39:30.926Z,101445.31
2022-11-08T10:42:12.112Z,101459.81
2022-11-08T10:44:44.126Z,101446.75
2022-11-08T10:47:28.434Z,101455.88
2022-11-08T10:50:03.427Z,101458.88
2022-11-08T10:52:37.388Z,101459.09
2022-11-08T10:55:25.044Z,101464.75
2022-11-08T10:57:56.747Z,101457.09
2022-11-08T11:00:31.887Z,101454.47
2022-11-08T11:03:06.355Z,101456.28
2022-11-08T11:05:45.621Z,101450.25
2022-11-08T11:08:18.706Z,101453.75
2022-11-08T11:10:50.434Z,101451.34
2022-11-08T11:13:20.951Z,101448.94
2022-11-08T11:16:07.395Z,101456.38
2022-11-08T11:18:51.785Z,101469.81
2022-11-08T11:21:26.688Z,101451.13
2022-11-08T11:24:29.804Z,101467.63
2022-11-08T11:26:59.736Z,101451.13
2022-11-08T11:29:37.959Z,101457.59
2022-11-08T11:32:28.771Z,101453.50
2022-11-08T11:35:06.371Z,101464.03
2022-11-08T11:37:46.905Z,101451.13
2022-11-08T11:40:35.697Z,101447.66
2022-11-08T11:43:11.729Z,101443.44
2022-11-08T11:46:04.663Z,101443.81
2022-11-08T11:48:46.613Z,101442.25
2022-11-08T11:51:18.309Z,101441.72
2022-11-08T11:53:49.315Z,101453.34
2022-11-08T11:56:29.115Z,101447.47
2022-11-08T11:59:22.341Z,101438.13
2022-11-08T12:02:23.687Z,101457.03
2022-11-08T12:05:31.692Z,101441.34
2022-11-08T12:08:18.665Z,101456.75
2022-11-08T12:11:09.984Z,101443.69
2022-11-08T12:14:05.647Z,101449.22
2022-11-08T12:16:49.562Z,101452.91
2022-11-08T12:19:42.804Z,101437.47
2022-11-08T12:22:51.418Z,101449.06
2022-11-08T12:25:46.127Z,101441.28
2022-11-08T12:28:27.407Z,101437.81
2022-11-08T12:31:24.263Z,101454.78
2022-11-08T12:34:05.187Z,101435.63
2022-11-08T12:37:01.926Z,101456.94
2022-11-08T12:39:42.769Z,101440.75
2022-11-08T12:42:27.555Z,101456.47
2022-11-08T12:45:10.723Z,101448.72
2022-11-08T12:48:04.436Z,101438.03
2022-11-08T12:50:37.593Z,101440.06
2022-11-08T12:53:45.649Z,101443.88
2022-11-08T12:56:29.417Z,101453.25
2022-11-08T12:59:01.355Z,101444.88
2022-11-08T13:01:32.424Z,101444.34
2022-11-08T13:04:22.562Z,101447.31
2022-11-08T13:07:13.060Z,101449.41
2022-11-08T13:09:58.404Z,101463.31
2022-11-08T13:13:11.858Z,101474.50
2022-11-08T13:16:14.380Z,101518.94
2022-11-08T13:18:56.956Z,101468.41
2022-11-08T13:21:36.514Z,101461.59
2022-11-08T13:24:37.827Z,101462.63
2022-11-08T13:27:46.797Z,101508.44
2022-11-08T13:30:20.188Z,101476.00
2022-11-08T13:33:07.369Z,101504.47
2022-11-08T13:36:24.749Z,101471.78
2022-11-08T13:39:27.291Z,101475.59
2022-11-08T13:42:27.242Z,101489.88
2022-11-08T13:45:17.350Z,101501.41
2022-11-08T13:47:51.683Z,101476.97
2022-11-08T13:50:32.346Z,101477.16
2022-11-08T13:53:32.696Z,101485.25
2022-11-08T13:56:10.123Z,101482.59
2022-11-08T13:58:47.968Z,101481.78
2022-11-08T14:01:21.652Z,101479.16
2022-11-08T14:03:57.130Z,101487.03
2022-11-08T14:07:00.431Z,101525.78
2022-11-08T14:10:10.328Z,101485.47
2022-11-08T14:13:05.324Z,101513.81
2022-11-08T14:16:13.608Z,101487.56
2022-11-08T14:18:49.494Z,101490.91
2022-11-08T14:21:26.156Z,101508.66
2022-11-08T14:23:59.656Z,101500.69
2022-11-08T14:26:35.300Z,101535.75
2022-11-08T14:29:12.572Z,101503.31
2022-11-08T14:31:43.745Z,101511.72
2022-11-08T14:34:53.045Z,101512.97
2022-11-08T14:37:33.867Z,101499.75
2022-11-08T14:40:05.915Z,101502.88
2022-11-08T14:42:37.392Z,101517.78
2022-11-08T14:45:23.148Z,101481.03
2022-11-08T14:48:06.960Z,101486.50
2022-11-08T14:50:38.727Z,101483.13
2022-11-08T14:53:34.427Z,101478.75
2022-11-08T14:56:14.809Z,101483.13
2022-11-08T14:58:46.664Z,101469.72
2022-11-08T15:01:22.337Z,101512.75
2022-11-08T15:04:03.468Z,101475.19
2022-11-08T15:06:49.416Z,101511.19
2022-11-08T15:09:38.355Z,101475.19
2022-11-08T15:12:18.947Z,101510.84
2022-11-08T15:15:04.347Z,101470.66
2022-11-08T15:17:40.122Z,101471.19
2022-11-08T15:20:17.038Z,101467.59
2022-11-08T15:22:56.325Z,101465.50
2022-11-08T15:25:38.602Z,101455.75
2022-11-08T15:28:32.654Z,101457.94
2022-11-08T15:31:08.247Z,101481.34
2022-11-08T15:33:43.443Z,101456.16
2022-11-08T15:36:17.875Z,101472.41
2022-11-08T15:38:52.524Z,101468.19
2022-11-08T15:41:41.612Z,101448.09
2022-11-08T15:44:27.560Z,101444.94
2022-11-08T15:47:02.890Z,101469.25
2022-11-08T15:49:34.635Z,101474.41
2022-11-08T15:52:07.142Z,101450.47
2022-11-08T15:54:37.560Z,101486.56
2022-11-08T15:57:09.541Z,101478.59
2022-11-08T15:59:41.264Z,101462.84
2022-11-08T16:02:16.862Z,101481.22
2022-11-08T16:04:48.396Z,101496.75
2022-11-08T16:07:20.576Z,101477.75
2022-11-08T16:09:52.158Z,101465.69
2022-11-08T16:12:25.214Z,101492.44
2022-11-08T16:15:00.333Z,101454.25
2022-11-08T16:17:35.073Z,101478.31
2022-11-08T16:20:06.557Z,101472.41
2022-11-08T16:22:39.883Z,101457.00
2022-11-08T16:25:10.967Z,101460.97
2022-11-08T16:27:41.612Z,101476.72
2022-11-08T16:30:21.589Z,101474.19
2022-11-08T16:32:54.154Z,101456.84
2022-11-08T16:35:25.812Z,101458.66
2022-11-08T16:37:56.631Z,101451.06
2022-11-08T16:40:28.445Z,101474.88
2022-11-08T16:42:59.293Z,101445.59
2022-11-08T16:45:58.408Z,101453.75
2022-11-08T16:48:27.120Z,101466.13
2022-11-08T16:51:02.707Z,101470.63
2022-11-08T16:53:34.833Z,101466.31
2022-11-08T16:56:06.338Z,101460.44
2022-11-08T16:58:37.321Z,101452.66
2022-11-08T17:01:10.687Z,101475.50
2022-11-08T17:03:42.056Z,101445.22
2022-11-08T17:06:22.956Z,101461.75
2022-11-08T17:08:53.557Z,101461.84
2022-11-08T17:11:26.963Z,101441.00
2022-11-08T17:13:58.296Z,101465.81
2022-11-08T17:16:29.648Z,101455.63
2022-11-08T17:19:00.676Z,101472.47
2022-11-08T17:21:46.097Z,101453.47
2022-11-08T17:24:21.815Z,101464.16
2022-11-08T17:26:53.914Z,101454.53
2022-11-08T17:29:26.034Z,101495.56
2022-11-08T17:31:56.199Z,101466.75
2022-11-08T17:34:27.990Z,101460.50
2022-11-08T17:36:58.435Z,101496.13
2022-11-08T17:39:30.098Z,101476.03
2022-11-08T17:42:02.977Z,101455.09
2022-11-08T17:44:34.097Z,101455.91
2022-11-08T17:47:05.323Z,101463.03
2022-11-08T17:49:41.229Z,101463.13
2022-11-08T17:52:14.480Z,101466.97
2022-11-08T17:54:50.274Z,101473.31
2022-11-08T17:57:24.455Z,101454.16
2022-11-08T17:59:54.792Z,101477.72
2022-11-08T18:02:26.158Z,101454.34
2022-11-08T18:04:56.418Z,101455.22
2022-11-08T18:07:27.792Z,101480.94
2022-11-08T18:09:59.018Z,101458.19
2022-11-08T18:12:31.623Z,101468.09
2022-11-08T18:15:02.636Z,101497.09
2022-11-08T18:17:32.948Z,101474.75
2022-11-08T18:20:03.535Z,101463.13
2022-11-08T18:22:34.827Z,101483.56
2022-11-08T18:25:05.649Z,101459.53
2022-11-08T18:27:35.702Z,101507.56
2022-11-08T18:30:07.136Z,101458.88
2022-11-08T18:32:38.426Z,101478.94
2022-11-08T18:35:08.317Z,101450.16
2022-11-08T18:37:39.181Z,101453.00
2022-11-08T18:40:11.044Z,101451.28
2022-11-08T18:42:43.052Z,101449.63
2022-11-08T18:45:14.623Z,101459.97
2022-11-08T18:47:44.707Z,101450.72
2022-11-08T18:50:14.968Z,101434.38
2022-11-08T18:52:46.939Z,101438.78
2022-11-08T18:55:19.527Z,101516.16
2022-11-08T18:57:50.864Z,101462.31
2022-11-08T19:00:21.444Z,101452.97
2022-11-08T19:02:51.528Z,101452.03
2022-11-08T19:05:22.862Z,101478.28
2022-11-08T19:07:53.277Z,101475.84
2022-11-08T19:10:23.617Z,101452.50
2022-11-08T19:12:54.783Z,101437.00
2022-11-08T19:15:30.410Z,101444.00
2022-11-08T19:18:02.044Z,101447.63
2022-11-08T19:20:33.291Z,101429.50
2022-11-08T19:23:05.307Z,101440.25
2022-11-08T19:25:36.211Z,101477.97
2022-11-08T19:28:06.832Z,101448.19
2022-11-08T19:30:37.130Z,101441.19
2022-11-08T19:33:06.667Z,101426.63
2022-11-08T19:35:39.300Z,101434.63
2022-11-08T19:38:10.481Z,101439.78
2022-11-08T19:40:43.486Z,101439.94
2022-11-08T19:43:14.057Z,101470.97
2022-11-08T19:45:50.572Z,101454.97
2022-11-08T19:48:22.499Z,101472.91
2022-11-08T19:50:54.381Z,101428.19
2022-11-08T19:53:24.728Z,101441.34
2022-11-08T19:56:01.664Z,101440.59
2022-11-08T19:58:33.025Z,101453.75
2022-11-08T20:01:14.485Z,101433.50
2022-11-08T20:03:45.581Z,101433.31
2022-11-08T20:06:20.015Z,101427.09
2022-11-08T20:08:55.671Z,101446.22
2022-11-08T20:11:26.341Z,101440.69
2022-11-08T20:13:57.509Z,101445.25
2022-11-08T20:16:35.411Z,101458.34
2022-11-08T20:19:08.627Z,101442.94
2022-11-08T20:21:45.480Z,101426.59
2022-11-08T20:24:17.159Z,101427.69
2022-11-08T20:26:47.619Z,101450.47
2022-11-08T20:29:19.094Z,101429.56
2022-11-08T20:31:53.056Z,101430.50
2022-11-08T20:34:25.831Z,101427.22
2022-11-08T20:36:56.508Z,101435.34
2022-11-08T20:39:27.899Z,101434.75
2022-11-08T20:41:58.886Z,101457.44
2022-11-08T20:44:30.824Z,101453.44
2022-11-08T20:47:06.229Z,101437.06
2022-11-08T20:49:37.368Z,101448.53
2022-11-08T20:52:07.597Z,101456.28
2022-11-08T20:54:43.663Z,101433.03
2022-11-08T20:57:15.551Z,101465.41
2022-11-08T20:59:45.958Z,101473.50
2022-11-08T21:02:17.052Z,101463.88
2022-11-08T21:04:47.301Z,101444.00
2022-11-08T21:08:01.255Z,101451.94
2022-11-08T21:13:00.726Z,101454.47
2022-11-08T21:15:31.287Z,101444.84
2022-11-08T21:18:02.544Z,101496.63
2022-11-08T21:20:34.886Z,101478.41
2022-11-08T21:23:05.865Z,101444.47
2022-11-08T21:25:36.032Z,101496.78
2022-11-08T21:28:07.938Z,101431.06
2022-11-08T21:30:38.500Z,101458.03
2022-11-08T21:33:09.575Z,101452.13
2022-11-08T21:35:39.904Z,101431.22
2022-11-08T21:38:10.240Z,101479.28
2022-11-08T21:40:40.389Z,101468.97
2022-11-08T21:43:11.191Z,101439.50
2022-11-08T21:45:42.465Z,101448.94
2022-11-08T21:48:15.426Z,101445.56
2022-11-08T21:50:46.649Z,101456.09
2022-11-08T21:53:17.017Z,101441.44
2022-11-08T21:55:47.960Z,101448.53
2022-11-08T21:58:18.270Z,101460.06
2022-11-08T22:00:52.776Z,101446.09
2022-11-08T22:03:23.073Z,101457.28
2022-11-08T22:05:53.998Z,101490.56
2022-11-08T22:08:24.194Z,101446.09
2022-11-08T22:10:54.169Z,101472.34
2022-11-08T22:13:24.323Z,101435.97
2022-11-08T22:15:54.065Z,101450.13
2022-11-08T22:18:36.692Z,101463.19
2022-11-08T22:21:33.210Z,101451.16
2022-11-08T22:24:04.822Z,101466.88
2022-11-08T22:26:35.317Z,101438.50
2022-11-08T22:29:05.450Z,101429.91
2022-11-08T22:31:37.937Z,101431.84
2022-11-08T22:34:10.822Z,101437.16
2022-11-08T22:36:45.200Z,101435.47
2022-11-08T22:39:17.403Z,101444.31
2022-11-08T22:41:51.243Z,101442.72
2022-11-08T22:44:23.523Z,101444.00
2022-11-08T22:46:53.639Z,101435.28
2022-11-08T22:49:23.323Z,101450.94
2022-11-08T22:51:53.892Z,101488.50
2022-11-08T22:54:24.092Z,101482.78
2022-11-08T22:56:54.119Z,101452.97
2022-11-08T22:59:25.055Z,101449.69
2022-11-08T23:01:56.055Z,101471.75
2022-11-08T23:04:26.438Z,101435.19
2022-11-08T23:06:56.249Z,101448.16
2022-11-08T23:09:26.095Z,101496.25
2022-11-08T23:12:14.237Z,101475.53
2022-11-08T23:15:02.617Z,101485.81
2022-11-08T23:17:32.868Z,101511.03
2022-11-08T23:20:23.835Z,101474.28
2022-11-08T23:23:11.925Z,101463.84
2022-11-08T23:25:42.250Z,101476.81
2022-11-08T23:28:30.285Z,101460.91
2022-11-08T23:31:22.019Z,101472.03
2022-11-08T23:33:52.035Z,101498.81
2022-11-08T23:36:23.869Z,101493.38
2022-11-08T23:38:55.016Z,101519.50
2022-11-08T23:41:45.717Z,101468.81
2022-11-08T23:44:29.468Z,101519.84
2022-11-08T23:47:03.059Z,101470.84
2022-11-08T23:49:35.476Z,101488.97
2022-11-08T23:52:06.272Z,101517.34
2022-11-08T23:54:36.993Z,101480.47
2022-11-08T23:57:07.416Z,101507.91
2022-11-08T23:59:38.561Z,101500.84
